createdAt,value
2022-11-15T00:03:28.312Z,3.00
2022-11-15T00:10:57.576Z,3.10
2022-11-15T00:13:24.920Z,3.00
2022-11-15T00:18:19.897Z,3.00
2022-11-15T00:33:07.395Z,3.00
2022-11-15T00:35:35.424Z,3.00
2022-11-15T00:38:03.187Z,3.00
2022-11-15T00:40:30.824Z,3.00
2022-11-15T00:50:20.428Z,3.10
2022-11-15T00:55:18.962Z,3.00
2022-11-15T01:00:14.079Z,3.10
2022-11-15T01:44:39.784Z,2.60
2022-11-15T01:47:19.559Z,2.60
2022-11-15T01:49:57.933Z,2.60
2022-11-15T01:52:28.502Z,2.60
2022-11-15T01:55:01.691Z,2.40
2022-11-15T02:07:20.573Z,2.50
2022-11-15T02:09:48.230Z,2.60
2022-11-15T02:12:18.858Z,2.60
2022-11-15T02:14:52.554Z,2.70
2022-11-15T02:20:07.766Z,2.70
2022-11-15T02:22:59.390Z,2.60
2022-11-15T02:25:40.641Z,2.60
2022-11-15T02:28:44.939Z,2.60
2022-11-15T02:31:29.429Z,2.60
2022-11-15T02:34:24.198Z,2.50
2022-11-15T02:37:11.783Z,2.50
2022-11-15T02:39:53.123Z,2.50
2022-11-15T02:42:58.403Z,2.60
2022-11-15T02:45:30.734Z,2.50
2022-11-15T02:48:00.351Z,2.50
2022-11-15T02:50:30.093Z,2.50
2022-11-15T02:55:36.009Z,2.50
2022-11-15T02:58:33.932Z,2.50
2022-11-15T03:01:25.330Z,2.50
2022-11-15T03:03:54.930Z,2.50
2022-11-15T03:06:56.953Z,2.50
2022-11-15T03:10:02.453Z,2.50
2022-11-15T03:12:42.606Z,2.40
2022-11-15T03:15:39.145Z,2.40
2022-11-15T03:18:16.844Z,2.40
2022-11-15T03:20:44.644Z,2.40
2022-11-15T03:23:12.327Z,2.40
2022-11-15T03:25:47.383Z,2.40
2022-11-15T03:28:33.561Z,2.40
2022-11-15T03:33:29.256Z,2.50
2022-11-15T03:38:27.364Z,2.50
2022-11-15T03:41:10.282Z,2.40
2022-11-15T03:43:49.054Z,2.40
2022-11-15T03:46:23.568Z,2.40
2022-11-15T03:48:55.379Z,2.40
2022-11-15T04:26:24.643Z,2.40
2022-11-15T05:18:53.311Z,2.00
2022-11-15T05:26:17.119Z,1.80
2022-11-15T05:31:14.970Z,1.80
2022-11-15T05:33:43.524Z,1.80
2022-11-15T05:36:38.987Z,1.80
2022-11-15T05:39:09.166Z,1.80
2022-11-15T05:41:53.271Z,1.80
2022-11-15T05:44:23.770Z,1.70
2022-11-15T05:46:54.508Z,1.70
2022-11-15T05:49:25.913Z,1.70
2022-11-15T05:51:54.000Z,1.70
2022-11-15T05:54:22.930Z,1.70
2022-11-15T05:56:50.490Z,1.80
2022-11-15T05:59:18.152Z,1.70
2022-11-15T06:36:16.092Z,1.80
2022-11-15T06:38:47.387Z,1.90
2022-11-15T06:41:15.627Z,1.90
2022-11-15T06:51:05.627Z,2.00
2022-11-15T06:56:05.596Z,2.00
2022-11-15T07:01:02.288Z,2.00
2022-11-15T07:06:02.763Z,2.00
2022-11-15T07:11:05.821Z,2.00
2022-11-15T07:13:34.791Z,2.10
2022-11-15T07:16:07.442Z,2.00
2022-11-15T07:18:41.556Z,2.10
2022-11-15T07:21:10.834Z,2.10
2022-11-15T07:23:39.172Z,2.10
2022-11-15T07:31:05.133Z,2.20
2022-11-15T07:36:02.633Z,2.30
2022-11-15T07:38:30.107Z,2.30
2022-11-15T07:40:58.723Z,2.30
2022-11-15T08:03:17.886Z,2.90
2022-11-15T08:13:10.785Z,3.30
2022-11-15T08:15:38.327Z,3.40
2022-11-15T08:18:08.098Z,3.50
2022-11-15T08:23:03.834Z,3.70
2022-11-15T08:25:31.851Z,3.70
2022-11-15T08:28:01.440Z,3.80
2022-11-15T08:32:58.546Z,4.10
2022-11-15T09:00:13.435Z,5.10
2022-11-15T09:42:22.058Z,6.70
2022-11-15T09:45:07.397Z,6.80
2022-11-15T09:47:55.048Z,7.00
2022-11-15T09:50:42.379Z,7.20
2022-11-15T09:54:13.647Z,7.20
2022-11-15T09:56:26.320Z,7.40
2022-11-15T09:59:27.064Z,7.30
2022-11-15T10:02:09.435Z,7.70
2022-11-15T10:04:38.503Z,7.80
2022-11-15T10:07:27.088Z,7.60
2022-11-15T10:10:19.370Z,7.90
2022-11-15T10:12:49.899Z,8.00
2022-11-15T10:15:23.610Z,8.10
2022-11-15T10:18:19.185Z,8.30
2022-11-15T10:21:08.832Z,8.40
2022-11-15T10:31:02.619Z,8.80
2022-11-15T10:36:19.523Z,8.90
2022-11-15T10:38:52.128Z,9.00
2022-11-15T10:41:23.018Z,9.10
2022-11-15T10:44:08.161Z,9.20
2022-11-15T10:46:46.482Z,9.30
2022-11-15T10:49:26.546Z,9.40
2022-11-15T10:52:13.758Z,9.40
2022-11-15T10:54:52.753Z,9.50
2022-11-15T10:59:54.231Z,9.60
2022-11-15T11:02:46.636Z,9.70
2022-11-15T11:05:42.346Z,9.70
2022-11-15T11:08:15.375Z,9.90
2022-11-15T11:11:00.179Z,9.90
2022-11-15T11:13:35.205Z,10.00
2022-11-15T11:16:36.386Z,10.00
2022-11-15T11:19:26.797Z,10.20
2022-11-15T11:22:02.420Z,10.20
2022-11-15T11:24:41.890Z,10.70
2022-11-15T11:27:26.696Z,10.60
2022-11-15T11:30:10.922Z,10.50
2022-11-15T11:32:59.388Z,10.60
2022-11-15T11:35:35.540Z,10.60
2022-11-15T11:38:29.938Z,10.70
2022-11-15T11:41:41.260Z,10.80
2022-11-15T11:44:40.388Z,10.90
2022-11-15T11:47:11.812Z,11.00
2022-11-15T11:52:31.026Z,10.90
2022-11-15T11:55:17.030Z,11.10
2022-11-15T11:58:13.015Z,11.40
2022-11-15T12:00:46.447Z,11.30
2022-11-15T12:03:35.781Z,11.70
2022-11-15T12:06:07.547Z,11.40
2022-11-15T12:08:41.113Z,11.50
2022-11-15T12:11:27.359Z,11.50
2022-11-15T12:14:01.289Z,11.30
2022-11-15T12:16:30.391Z,11.60
2022-11-15T12:19:01.574Z,11.60
2022-11-15T12:24:05.266Z,11.70
2022-11-15T12:26:42.254Z,11.80
2022-11-15T12:29:39.368Z,11.70
2022-11-15T12:32:18.038Z,11.60
2022-11-15T12:34:48.377Z,11.40
2022-11-15T12:37:39.787Z,11.60
2022-11-15T12:40:26.800Z,11.70
2022-11-15T12:43:11.670Z,11.70
2022-11-15T12:45:41.208Z,11.70
2022-11-15T12:48:16.868Z,11.60
2022-11-15T12:50:55.345Z,11.80
2022-11-15T12:53:25.486Z,12.40
2022-11-15T12:56:04.489Z,11.90
2022-11-15T12:58:56.837Z,11.90
2022-11-15T13:01:33.388Z,11.90
2022-11-15T13:04:22.261Z,12.00
2022-11-15T13:06:53.572Z,12.00
2022-11-15T13:09:35.248Z,11.90
2022-11-15T13:12:31.959Z,12.00
2022-11-15T13:15:22.969Z,12.10
2022-11-15T13:17:53.527Z,12.20
2022-11-15T13:20:31.432Z,12.20
2022-11-15T13:23:03.343Z,12.10
2022-11-15T13:25:59.025Z,12.00
2022-11-15T13:28:32.459Z,11.90
2022-11-15T13:31:02.244Z,12.20
2022-11-15T13:33:37.519Z,12.20
2022-11-15T13:36:17.768Z,12.10
2022-11-15T13:41:21.761Z,12.30
2022-11-15T13:43:50.553Z,12.30
2022-11-15T13:46:29.053Z,12.20
2022-11-15T13:53:56.753Z,12.20
2022-11-15T13:56:28.405Z,12.20
2022-11-15T14:01:23.907Z,12.30
2022-11-15T14:04:02.405Z,12.30
2022-11-15T14:06:31.493Z,12.30
2022-11-15T14:09:12.504Z,12.30
2022-11-15T14:11:51.246Z,12.30
2022-11-15T14:14:24.971Z,12.20
2022-11-15T14:16:56.223Z,12.60
2022-11-15T14:22:21.411Z,12.20
2022-11-15T14:25:14.161Z,12.30
2022-11-15T14:27:42.643Z,12.30
2022-11-15T14:30:17.571Z,12.20
2022-11-15T14:32:51.414Z,12.10
2022-11-15T14:35:21.475Z,12.10
2022-11-15T14:40:20.675Z,12.10
2022-11-15T14:42:49.140Z,12.00
2022-11-15T14:45:23.201Z,12.00
2022-11-15T14:50:20.484Z,12.00
2022-11-15T14:55:33.001Z,12.00
2022-11-15T15:05:35.429Z,11.50
2022-11-15T15:10:41.399Z,11.20
2022-11-15T15:13:21.130Z,11.10
2022-11-15T15:15:50.345Z,11.10
2022-11-15T15:20:46.654Z,10.90
2022-11-15T15:23:18.711Z,10.70
2022-11-15T15:30:41.509Z,10.50
2022-11-15T15:35:36.101Z,10.40
2022-11-15T15:40:33.190Z,10.30
2022-11-15T15:43:00.470Z,10.10
2022-11-15T15:50:28.810Z,9.90
2022-11-15T15:52:57.984Z,9.80
2022-11-15T15:55:25.764Z,9.70
2022-11-15T16:00:22.222Z,9.60
2022-11-15T16:10:24.006Z,9.30
2022-11-15T16:15:19.056Z,9.20
2022-11-15T16:17:51.310Z,9.20
2022-11-15T16:20:40.287Z,9.00
2022-11-15T16:23:10.177Z,8.80
2022-11-15T16:25:41.932Z,9.00
2022-11-15T16:28:22.347Z,9.00
2022-11-15T16:30:56.578Z,8.80
2022-11-15T16:33:23.931Z,8.50
2022-11-15T16:38:18.715Z,8.40
2022-11-15T16:50:41.116Z,8.30
2022-11-15T17:02:58.308Z,8.10
2022-11-15T17:05:27.350Z,8.00
2022-11-15T17:10:22.866Z,7.70
2022-11-15T17:12:50.517Z,7.90
2022-11-15T17:15:18.260Z,7.80
2022-11-15T17:17:50.848Z,7.90
2022-11-15T17:20:19.255Z,7.80
2022-11-15T17:30:12.019Z,7.60
2022-11-15T17:40:10.735Z,7.50
2022-11-15T17:59:53.432Z,7.20
2022-11-15T18:02:20.273Z,7.20
2022-11-15T18:24:34.849Z,7.00
2022-11-15T18:27:03.718Z,6.90
2022-11-15T18:34:31.902Z,6.90
2022-11-15T18:49:20.335Z,6.80
2022-11-15T18:54:16.215Z,6.80
2022-11-15T18:56:47.234Z,6.80
2022-11-15T18:59:14.837Z,6.70
2022-11-15T19:01:48.374Z,6.90
2022-11-15T19:04:18.647Z,6.80
2022-11-15T19:06:47.785Z,6.80
2022-11-15T19:09:16.535Z,6.80
2022-11-15T19:11:46.469Z,6.80
2022-11-15T19:14:17.684Z,6.80
2022-11-15T19:16:52.629Z,6.80
2022-11-15T19:19:28.736Z,6.70
2022-11-15T19:36:44.679Z,6.10
2022-11-15T19:39:14.714Z,6.30
2022-11-15T19:41:43.131Z,6.20
2022-11-15T19:44:11.209Z,6.10
2022-11-15T19:51:41.609Z,5.80
2022-11-15T19:56:38.004Z,5.80
2022-11-15T19:59:05.335Z,5.70
2022-11-15T20:01:36.365Z,5.90
2022-11-15T20:06:34.344Z,5.80
2022-11-15T20:14:00.437Z,5.70
2022-11-15T20:26:21.223Z,6.10
2022-11-15T20:28:48.906Z,6.10
2022-11-15T20:36:12.545Z,6.20
2022-11-15T20:51:16.316Z,6.50
2022-11-15T20:53:44.620Z,6.50
2022-11-15T20:56:21.604Z,6.60
2022-11-15T21:01:23.365Z,6.60
2022-11-15T21:03:53.055Z,6.60
2022-11-15T21:09:10.991Z,6.70
2022-11-15T21:31:48.527Z,6.70
2022-11-15T21:53:58.792Z,6.50
2022-11-15T21:56:26.784Z,6.50
2022-11-15T21:58:54.879Z,6.60
2022-11-15T22:01:43.792Z,6.60
2022-11-15T22:09:06.235Z,6.60
2022-11-15T22:26:23.180Z,6.40
2022-11-15T22:36:13.321Z,6.50
2022-11-15T22:48:35.054Z,6.40
2022-11-15T22:55:59.611Z,6.40
2022-11-15T22:58:28.375Z,6.40
2022-11-15T23:00:57.428Z,6.30
2022-11-15T23:03:25.569Z,6.10
2022-11-15T23:13:33.765Z,6.00
2022-11-15T23:16:23.156Z,6.00
2022-11-15T23:18:52.714Z,6.10
2022-11-15T23:21:46.846Z,5.90
2022-11-15T23:24:15.079Z,6.10
2022-11-15T23:26:43.484Z,6.00
2022-11-15T23:29:12.472Z,6.00
2022-11-15T23:34:30.880Z,5.90
